Friday, May 22, 2015, 4:34 PM EDT

KOXB, Ocean City Municipal Airport

Location: Berlin, MD, United States Lat: 38.317
Local Time: 4:34 PM EDT (20:34 GMT) Lon: -75.117
Time Zone: US/Eastern Elev: 13 ft

Show me the last for .
Show Decoded

2015-05-22 15:53 METAR KOXB 221953Z AUTO 28011G16KT 10SM CLR 23/07 A3008 RMK AO2 SLP184 T02280067
                 TSNO =
2015-05-22 14:53 METAR KOXB 221853Z AUTO 28010G17KT 10SM CLR 22/07 A3008 RMK AO2 SLP184 T02220072
                 TSNO =
2015-05-22 13:53 METAR KOXB 221753Z AUTO 30011G19KT 10SM CLR 22/04 A3007 RMK AO2 SLP183 T02170044
                 10222 20128 TSNO =
2015-05-22 12:53 METAR KOXB 221653Z AUTO 33013KT 10SM 22/07 A3007 RMK AO2 SLP181 T02170072 TSNO $
                 =
2015-05-22 11:53 METAR KOXB 221553Z AUTO 32011KT 10SM CLR 20/08 A3007 RMK AO2 SLP181 T02000083
                 TSNO =
2015-05-22 10:53 METAR KOXB 221453Z AUTO 33015KT 10SM CLR 18/09 A3006 RMK AO2 SLP180 T01830089
                 51015 TSNO =
2015-05-22 09:53 METAR KOXB 221353Z AUTO 31011KT 10SM CLR 17/09 A3005 RMK AO2 SLP176 T01670089
                 TSNO =
2015-05-22 08:53 METAR KOXB 221253Z AUTO 33010G18KT 10SM CLR 14/09 A3004 RMK AO2 SLP173 T01440089
                 TSNO =
2015-05-22 07:53 METAR KOXB 221153Z AUTO 31010G15KT 9SM CLR 13/09 A3002 RMK AO2 SLP165 70093
                 T01280094 10128 20089 53028 TSNO =
2015-05-22 06:53 METAR KOXB 221053Z AUTO 31008KT 6SM BR CLR 11/09 A2999 RMK AO2 SLP156 T01060094
                 TSNO =
2015-05-22 05:53 METAR KOXB 220953Z AUTO 32009KT 5SM BR CLR 10/08 A2996 RMK AO2 SLP146 T01000083
                 TSNO =
2015-05-22 04:53 METAR KOXB 220853Z AUTO 31006KT 6SM BR CLR 09/08 A2994 RMK AO2 SLP137 T00940083
                 53011 TSNO =
2015-05-22 02:53 METAR KOXB 220653Z AUTO 33006KT 8SM FEW008 10/09 A2991 RMK AO2 SLP127 T01000089
                 TSNO =
2015-05-22 02:40 METAR KOXB 220640Z AUTO 32007KT 8SM SCT008 10/09 A2991 RMK AO2 T01000094 TSNO =
2015-05-22 01:53 METAR KOXB 220553Z AUTO 32010KT 7SM OVC006 11/10 A2991 RMK AO2 CIG 003V011
                 SLP127 60018 T01110100 10117 20111 53007 TSNO =
2015-05-22 01:46 METAR KOXB 220546Z AUTO 33009KT 6SM BR OVC004 12/11 A2990 RMK AO2 CIG 003V008
                 T01170106 TSNO =
2015-05-22 01:20 METAR KOXB 220520Z AUTO 33009KT 4SM BR OVC002 12/11 A2990 RMK AO2 T01170106 TSNO
                 =
2015-05-22 01:11 METAR KOXB 220511Z AUTO 33010G14KT 2 1/2SM BR OVC002 12/11 A2990 RMK AO2 CIG
                 002V005 T01170106 TSNO =
2015-05-22 01:03 METAR KOXB 220503Z AUTO 34010KT 4SM BR OVC004 12/11 A2990 RMK AO2 CIG 002V007
                 T01170106 TSNO =
2015-05-22 00:53 METAR KOXB 220453Z AUTO 33007KT 8SM OVC006 12/11 A2990 RMK AO2 SLP123 T01170106
                 401560111 TSNO =
2015-05-21 23:53 METAR KOXB 220353Z AUTO 35009KT 10SM OVC008 12/11 A2989 RMK AO2 SLP121 T01170106
                 TSNO =
2015-05-21 23:14 METAR KOXB 220314Z AUTO 36006KT 10SM BKN009 OVC013 12/11 A2988 RMK AO2 T01170106
                 TSNO =
2015-05-21 23:01 METAR KOXB 220301Z AUTO 01008KT 10SM FEW007 BKN012 OVC043 12/11 A2988 RMK AO2
                 T01170106 TSNO =
2015-05-21 22:53 METAR KOXB 220253Z AUTO 36007KT 10SM SCT010 BKN014 OVC043 12/11 A2988 RMK AO2
                 RAE18 SLP119 P0001 60018 T01170106 55000 TSNO =
2015-05-21 22:25 METAR KOXB 220225Z AUTO 01007KT 8SM SCT008 SCT012 OVC041 12/11 A2988 RMK AO2
                 RAE18 P0001 T01170106 TSNO =
2015-05-21 21:53 METAR KOXB 220153Z AUTO 01009KT 4SM -RA BR OVC006 12/11 A2988 RMK AO2 CIG
                 005V010 SLP118 P0004 T01170106 TSNO =
2015-05-21 20:53 METAR KOXB 220053Z AUTO 03009KT 3SM -RA BR OVC007 12/11 A2988 RMK AO2 CIG
                 005V012 SLP118 P0013 T01170106 TSNO =
2015-05-21 20:00 METAR KOXB 220000Z AUTO 04007KT 3SM RA BR BKN007 OVC031 12/11 A2989 RMK AO2
                 P0001 T01170106 TSNO =
2015-05-21 19:53 METAR KOXB 212353Z AUTO 04008KT 3SM -RA BR SCT007 OVC030 12/11 A2989 RMK AO2
                 SLP120 P0011 60067 T01170106 10139 20111 55006 TSNO =
2015-05-21 19:45 METAR KOXB 212345Z AUTO 03008KT 2SM RA BR FEW007 BKN027 OVC034 12/10 A2989 RMK
                 AO2 P0009 T01170100 TSNO =
2015-05-21 19:35 METAR KOXB 212335Z AUTO 03009KT 1 3/4SM RA BR OVC027 12/10 A2989 RMK AO2 P0006
                 T01170100 TSNO =
2015-05-21 19:04 METAR KOXB 212304Z AUTO 04009G17KT 4SM -RA BR FEW011 BKN020 OVC031 12/10 A2989
                 RMK AO2 P0001 T01170100 TSNO =
2015-05-21 18:53 METAR KOXB 212253Z AUTO 04012KT 2 1/2SM RA BR FEW011 BKN020 OVC026 12/10 A2988
                 RMK AO2 SLP118 P0006 T01170100 TSNO =
2015-05-21 17:53 METAR KOXB 212153Z AUTO 03010KT 6SM -RA BR FEW012 OVC028 11/09 A2988 RMK AO2
                 SLP119 P0010 T01110094 TSNO =
2015-05-21 17:26 METAR KOXB 212126Z AUTO 04012KT 4SM RA BR SCT011 OVC029 11/09 A2990 RMK AO2
                 P0005 T01110094 TSNO =
2015-05-21 16:53 METAR KOXB 212053Z AUTO 04010KT 3SM -RA BR OVC032 11/10 A2990 RMK AO2 SLP126
                 P0017 60040 T01110100 56012 TSNO =
2015-05-21 16:45 METAR KOXB 212045Z AUTO 04008KT 3SM RA BR BKN032 OVC060 12/10 A2991 RMK AO2
                 P0016 T01170100 TSNO =
2015-05-21 16:38 METAR KOXB 212038Z AUTO 04010KT 2 1/2SM RA BR BKN034 BKN047 OVC060 12/10 A2990
                 RMK AO2 P0014 T01170100 TSNO =

Support USWX by starting your Amazon purchase here.